Terminal Aerodrome Forecast
Issued by NWS

Current Version | Previous Version | Text Only | Print | Product List | Glossary On
Versions: 1 2 3 4 5 6 7 8 9 10 11 12 13 14 15
000
FTUS44 KEWX 142300
TAFSSF
TAF
KSSF 142326Z 1500/1524 06005KT P6SM SKC
     FM150400 VRB03KT P6SM BKN025
     FM151200 01002KT P6SM OVC018
     FM151300 01002KT P6SM BKN050=

USA.gov is the U.S. government's official web portal to all federal, state and local government web resources and services.